Time;durP1;ratioP1;P1;durP2;ratioP2;P2;SDS_P1;SDS_P2;PMS_P1;PMS_P2;Temp;Humidity;BMP_temperature;BMP_pressure;BME280_temperature;BME280_humidity;BME280_pressure;Samples;Min_cycle;Max_cycle;Signal;HPM_P1;HPM_P2
2022/08/29 00:00:24;;;;;;;1.60;0.70;;;18.80;47.80;;;;;;4930021;29;20439;-45
2022/08/29 00:02:55;;;;;;;1.70;0.70;;;18.70;48.00;;;;;;4932663;29;20060;-47
2022/08/29 00:05:31;;;;;;;4.28;1.77;;;18.80;48.40;;;;;;4931491;29;20064;-47
2022/08/29 00:08:02;;;;;;;1.25;0.95;;;18.70;48.40;;;;;;4919479;29;20040;-48
2022/08/29 00:10:33;;;;;;;1.33;0.95;;;18.70;48.60;;;;;;4931168;29;20509;-47
2022/08/29 00:13:04;;;;;;;0.88;0.80;;;18.60;48.70;;;;;;4936149;29;20048;-47
2022/08/29 00:15:35;;;;;;;2.25;1.13;;;18.60;48.90;;;;;;4936106;29;20400;-47
2022/08/29 00:18:12;;;;;;;1.63;1.00;;;18.50;49.00;;;;;;4931495;29;20103;-47
2022/08/29 00:20:39;;;;;;;1.85;0.80;;;18.50;48.90;;;;;;4935931;29;20129;-45
2022/08/29 00:23:11;;;;;;;2.88;1.10;;;18.40;48.80;;;;;;4935416;29;20043;-47
2022/08/29 00:25:42;;;;;;;2.15;1.10;;;18.40;48.90;;;;;;4932673;29;20509;-45
2022/08/29 00:28:09;;;;;;;1.65;0.70;;;18.30;49.00;;;;;;4930974;29;20047;-47
2022/08/29 00:30:45;;;;;;;1.88;0.63;;;18.20;49.10;;;;;;4935651;29;20058;-46
2022/08/29 00:33:11;;;;;;;2.15;1.30;;;18.20;49.20;;;;;;4935842;29;20082;-46
2022/08/29 00:35:45;;;;;;;1.98;0.70;;;18.10;49.20;;;;;;4935330;29;20130;-47
2022/08/29 00:38:15;;;;;;;2.45;0.93;;;18.10;49.60;;;;;;4929570;29;20071;-48
2022/08/29 00:40:51;;;;;;;1.05;0.80;;;18.00;49.60;;;;;;4935472;29;20496;-46
2022/08/29 00:43:21;;;;;;;0.95;0.80;;;18.00;50.00;;;;;;4936025;29;20075;-47
2022/08/29 00:46:01;;;;;;;1.98;0.90;;;18.00;49.80;;;;;;4931185;29;20444;-46
2022/08/29 00:48:28;;;;;;;1.98;1.33;;;17.90;50.20;;;;;;4930910;29;20047;-47
2022/08/29 00:51:04;;;;;;;1.73;1.13;;;17.90;49.80;;;;;;4935470;29;20044;-46
2022/08/29 00:53:39;;;;;;;0.80;0.75;;;17.80;50.40;;;;;;4935742;29;20083;-46
2022/08/29 00:56:08;;;;;;;2.00;1.08;;;17.80;50.60;;;;;;4933716;29;20040;-46
2022/08/29 00:58:44;;;;;;;2.50;1.27;;;17.70;50.20;;;;;;4931064;29;20084;-47
2022/08/29 01:01:11;;;;;;;1.20;1.10;;;17.70;50.50;;;;;;4935109;29;20036;-47
2022/08/29 01:03:40;;;;;;;3.03;0.75;;;17.60;50.20;;;;;;4935500;29;20047;-45
2022/08/29 01:06:12;;;;;;;1.30;0.68;;;17.60;50.20;;;;;;4930954;29;20123;-46
2022/08/29 01:08:39;;;;;;;2.00;0.95;;;17.60;50.40;;;;;;4935385;29;20445;-45
2022/08/29 01:13:53;;;;;;;1.05;0.90;;;17.50;50.70;;;;;;4935073;29;20074;-47
2022/08/29 01:16:25;;;;;;;1.10;1.00;;;17.50;50.70;;;;;;4928477;29;20481;-45
2022/08/29 01:18:56;;;;;;;1.55;0.82;;;17.40;50.60;;;;;;4927427;29;20166;-46
2022/08/29 01:21:45;;;;;;;1.67;1.03;;;17.40;50.90;;;;;;4916434;29;20440;-47
2022/08/29 01:24:49;;;;;;;2.42;0.85;;;17.40;51.30;;;;;;4928852;29;20146;-47
2022/08/29 01:27:26;;;;;;;1.73;1.23;;;17.30;51.50;;;;;;4927010;29;20122;-49
2022/08/29 01:29:53;;;;;;;1.38;1.00;;;17.30;51.40;;;;;;4935160;29;20059;-49
2022/08/29 01:32:22;;;;;;;1.48;1.10;;;17.30;51.10;;;;;;4931088;29;20094;-46
2022/08/29 01:34:49;;;;;;;4.20;1.08;;;17.20;51.20;;;;;;4934591;29;20075;-47
2022/08/29 01:37:24;;;;;;;1.55;1.00;;;17.20;51.30;;;;;;4926869;29;20048;-47
2022/08/29 01:39:50;;;;;;;2.47;1.10;;;17.20;51.20;;;;;;4933793;29;20126;-49
2022/08/29 01:42:23;;;;;;;1.90;0.90;;;17.10;51.20;;;;;;4926585;29;20095;-46
2022/08/29 01:45:01;;;;;;;1.55;0.82;;;17.10;51.80;;;;;;4932033;29;20477;-48
2022/08/29 01:47:38;;;;;;;1.85;1.20;;;17.10;51.30;;;;;;4934019;29;20491;-47
2022/08/29 01:50:13;;;;;;;2.00;1.10;;;17.10;51.80;;;;;;4934556;29;20419;-46
2022/08/29 01:52:41;;;;;;;0.75;0.75;;;17.00;51.60;;;;;;4930970;29;20045;-48
2022/08/29 01:55:09;;;;;;;1.42;0.98;;;17.00;51.50;;;;;;4932750;29;20048;-47
2022/08/29 01:57:39;;;;;;;1.60;1.00;;;17.00;51.40;;;;;;4933822;29;20107;-50
2022/08/29 02:00:09;;;;;;;2.53;1.13;;;16.90;51.50;;;;;;4934499;29;20106;-47
2022/08/29 02:02:37;;;;;;;1.23;0.75;;;16.90;51.60;;;;;;4930459;29;20501;-47
2022/08/29 02:05:08;;;;;;;1.10;0.88;;;16.90;51.50;;;;;;4934216;29;20054;-47
2022/08/29 02:07:38;;;;;;;2.08;1.20;;;16.80;51.50;;;;;;4934022;29;20151;-47
2022/08/29 02:10:08;;;;;;;1.00;0.80;;;16.80;51.50;;;;;;4931690;29;20067;-47
2022/08/29 02:12:35;;;;;;;1.75;1.30;;;16.70;51.50;;;;;;4930665;29;20051;-47
2022/08/29 02:15:06;;;;;;;2.80;1.20;;;16.70;51.70;;;;;;4934006;29;20625;-47
2022/08/29 02:17:32;;;;;;;5.13;0.93;;;16.70;51.70;;;;;;4931325;29;20048;-46
2022/08/29 02:20:07;;;;;;;1.80;1.30;;;16.60;51.70;;;;;;4930780;29;20100;-47
2022/08/29 02:22:38;;;;;;;1.30;0.90;;;16.60;52.00;;;;;;4929049;29;20075;-45
2022/08/29 02:25:40;;;;;;;1.70;1.25;;;16.60;52.20;;;;;;4933348;29;20134;-46
2022/08/29 02:27:58;;;;;;;;;;;16.60;52.10;;;;;;4933240;29;20074;-49
2022/08/29 02:30:24;;;;;;;1.00;0.77;;;16.60;51.60;;;;;;4928713;29;19981;-46
2022/08/29 02:32:54;;;;;;;1.63;0.93;;;16.50;51.50;;;;;;4933685;29;20074;-47
2022/08/29 02:35:21;;;;;;;2.05;1.30;;;16.50;51.80;;;;;;4914475;29;20091;-45
2022/08/29 02:37:52;;;;;;;0.93;0.80;;;16.40;52.00;;;;;;4924377;29;20103;-49
2022/08/29 02:40:18;;;;;;;1.05;0.80;;;16.40;52.00;;;;;;4930635;29;20381;-47
2022/08/29 02:42:50;;;;;;;2.08;1.08;;;16.40;52.20;;;;;;4933623;29;20050;-47
2022/08/29 02:45:17;;;;;;;1.33;1.10;;;16.40;52.30;;;;;;4933242;29;20065;-45
2022/08/29 02:47:43;;;;;;;1.58;1.17;;;16.50;52.50;;;;;;4931977;29;20048;-45
2022/08/29 02:50:12;;;;;;;2.40;1.13;;;16.40;52.50;;;;;;4930881;29;20051;-46
2022/08/29 02:52:47;;;;;;;2.80;1.08;;;16.30;52.60;;;;;;4933272;29;20066;-47
2022/08/29 02:55:17;;;;;;;1.23;0.93;;;16.30;52.80;;;;;;4933783;29;20408;-47
2022/08/29 02:57:44;;;;;;;1.00;0.90;;;16.30;52.80;;;;;;4929088;29;20515;-47
2022/08/29 03:00:15;;;;;;;1.50;1.00;;;16.30;52.70;;;;;;4931835;29;20467;-45
2022/08/29 03:02:47;;;;;;;2.90;1.23;;;16.30;52.80;;;;;;4933304;29;20070;-46
2022/08/29 03:05:20;;;;;;;0.80;0.80;;;16.30;52.70;;;;;;4931219;29;20118;-48
2022/08/29 03:07:47;;;;;;;1.92;1.38;;;16.20;52.60;;;;;;4931678;29;20044;-47
2022/08/29 03:10:17;;;;;;;4.10;1.10;;;16.20;52.40;;;;;;4931839;29;20508;-45
2022/08/29 03:12:45;;;;;;;1.40;1.10;;;16.10;52.60;;;;;;4933023;29;20056;-47
2022/08/29 03:15:19;;;;;;;2.17;1.30;;;16.10;52.80;;;;;;4930633;29;20040;-48
2022/08/29 03:17:49;;;;;;;1.75;1.35;;;16.10;52.90;;;;;;4929839;29;20047;-48
2022/08/29 03:20:22;;;;;;;2.97;1.23;;;16.10;53.00;;;;;;4932650;29;20091;-44
2022/08/29 03:22:53;;;;;;;1.80;1.15;;;16.10;53.00;;;;;;4933053;29;20047;-47
2022/08/29 03:25:21;;;;;;;1.60;1.17;;;16.00;53.10;;;;;;4927356;29;20048;-45
2022/08/29 03:27:50;;;;;;;2.10;1.25;;;16.00;53.10;;;;;;4931850;29;20060;-47
2022/08/29 03:30:17;;;;;;;1.75;1.02;;;16.00;53.10;;;;;;4932963;29;20047;-45
2022/08/29 03:32:45;;;;;;;1.92;1.13;;;16.00;53.10;;;;;;4931250;29;20423;-46
2022/08/29 03:35:14;;;;;;;1.67;1.00;;;15.90;53.10;;;;;;4927675;29;20055;-46
2022/08/29 03:37:51;;;;;;;2.42;0.90;;;15.90;53.20;;;;;;4931658;29;20044;-46
2022/08/29 03:40:21;;;;;;;1.95;1.27;;;15.90;53.30;;;;;;4929019;29;20055;-46
2022/08/29 03:42:48;;;;;;;1.27;1.00;;;15.90;53.40;;;;;;4936885;29;20127;-46
2022/08/29 03:45:17;;;;;;;1.20;1.10;;;15.80;53.50;;;;;;4931695;29;20564;-46
2022/08/29 03:47:47;;;;;;;2.88;1.75;;;15.90;53.70;;;;;;4936608;29;20048;-47
2022/08/29 03:50:14;;;;;;;2.60;1.50;;;15.80;53.90;;;;;;4936306;29;20420;-45
2022/08/29 03:52:43;;;;;;;3.80;1.42;;;15.80;54.80;;;;;;4932334;29;20051;-47
2022/08/29 03:55:14;;;;;;;1.33;1.23;;;15.80;54.40;;;;;;4932911;29;20048;-47
2022/08/29 03:57:43;;;;;;;2.25;1.50;;;15.80;54.30;;;;;;4935145;29;20102;-47
2022/08/29 04:00:16;;;;;;;7.47;1.70;;;15.80;54.30;;;;;;4936096;28;20051;-47
2022/08/29 04:02:45;;;;;;;2.53;1.40;;;15.80;54.60;;;;;;4933679;29;20040;-47
2022/08/29 04:05:13;;;;;;;2.72;1.40;;;15.80;54.50;;;;;;4935083;29;20048;-47
2022/08/29 04:07:56;;;;;;;1.27;1.20;;;15.80;55.10;;;;;;4935142;29;20052;-46
2022/08/29 04:10:26;;;;;;;2.85;1.55;;;15.80;55.20;;;;;;4936300;29;20544;-48
2022/08/29 04:12:54;;;;;;;5.13;1.40;;;15.80;54.60;;;;;;4928244;29;20420;-51
2022/08/29 04:15:25;;;;;;;2.50;1.65;;;15.80;54.60;;;;;;4933537;29;20062;-51
2022/08/29 04:17:56;;;;;;;2.22;1.20;;;15.80;54.80;;;;;;4933073;29;20452;-51
2022/08/29 04:20:27;;;;;;;2.15;1.35;;;15.80;55.20;;;;;;4928729;29;20140;-51
2022/08/29 04:22:59;;;;;;;1.95;1.50;;;15.80;54.90;;;;;;4948504;29;20044;-48
2022/08/29 04:25:28;;;;;;;1.83;1.35;;;15.80;54.90;;;;;;4935859;29;20468;-51
2022/08/29 04:28:09;;;;;;;3.17;1.80;;;15.80;55.10;;;;;;4934755;29;20079;-51
2022/08/29 04:30:37;;;;;;;3.55;2.15;;;15.80;55.30;;;;;;4929950;29;20090;-46
2022/08/29 04:33:04;;;;;;;2.28;1.50;;;15.80;54.70;;;;;;4931278;29;20519;-50
2022/08/29 04:35:31;;;;;;;3.47;1.33;;;15.80;54.70;;;;;;4934515;29;20051;-48
2022/08/29 04:37:58;;;;;;;2.05;1.50;;;15.80;54.90;;;;;;4934739;29;20039;-50
2022/08/29 04:40:25;;;;;;;4.22;1.67;;;15.80;54.80;;;;;;4932488;29;20043;-50
2022/08/29 04:42:58;;;;;;;1.42;1.17;;;15.80;54.90;;;;;;4932412;29;20484;-51
2022/08/29 04:45:28;;;;;;;2.20;1.98;;;15.80;55.00;;;;;;4934790;29;20249;-47
2022/08/29 04:47:57;;;;;;;1.48;1.38;;;15.80;55.10;;;;;;4934058;29;20412;-50
2022/08/29 04:50:29;;;;;;;;;;;15.80;55.10;;;;;;4931443;29;20413;-46
2022/08/29 04:52:58;;;;;;;2.42;1.20;;;15.90;55.00;;;;;;4933882;29;20504;-47
2022/08/29 04:55:24;;;;;;;2.40;1.50;;;15.80;54.40;;;;;;4928714;29;20083;-47
2022/08/29 04:57:55;;;;;;;2.67;1.50;;;15.80;54.70;;;;;;4934517;29;20051;-48
2022/08/29 05:00:25;;;;;;;1.92;1.50;;;15.80;55.00;;;;;;4935624;29;20062;-46
2022/08/29 05:02:52;;;;;;;3.35;1.42;;;15.80;55.40;;;;;;4921931;29;20040;-48
2022/08/29 05:05:21;;;;;;;2.17;1.48;;;15.70;55.20;;;;;;4927540;29;20042;-47
2022/08/29 05:07:49;;;;;;;1.70;1.60;;;15.80;55.50;;;;;;4935985;29;20047;-50
2022/08/29 05:10:18;;;;;;;2.65;1.45;;;15.80;55.60;;;;;;4933125;29;20496;-44
2022/08/29 05:12:45;;;;;;;1.98;1.58;;;15.80;55.90;;;;;;4935447;29;20571;-47
2022/08/29 05:15:13;;;;;;;1.73;1.30;;;15.80;55.90;;;;;;4935505;29;20055;-46
2022/08/29 05:17:41;;;;;;;2.40;1.42;;;15.80;55.90;;;;;;4918692;29;20457;-49
2022/08/29 05:20:08;;;;;;;2.35;1.77;;;15.80;55.90;;;;;;4934035;29;20386;-49
2022/08/29 05:22:38;;;;;;;3.20;1.83;;;15.80;56.20;;;;;;4935477;29;20040;-49
2022/08/29 05:25:05;;;;;;;3.50;1.98;;;15.90;56.30;;;;;;4935561;29;20477;-47
2022/08/29 05:27:35;;;;;;;2.13;1.73;;;15.90;56.40;;;;;;4926964;29;20079;-47
2022/08/29 05:30:03;;;;;;;1.92;1.38;;;15.90;57.00;;;;;;4932723;29;20409;-46
2022/08/29 05:32:30;;;;;;;2.83;1.65;;;16.00;57.10;;;;;;4935269;29;20051;-48
2022/08/29 05:35:02;;;;;;;1.83;1.42;;;16.00;57.20;;;;;;4933376;29;20056;-46
2022/08/29 05:37:33;;;;;;;1.83;1.67;;;16.00;57.60;;;;;;4931138;29;20035;-46
2022/08/29 05:39:59;;;;;;;2.70;1.83;;;16.10;57.50;;;;;;4935308;29;20044;-45
2022/08/29 05:42:26;;;;;;;2.63;1.98;;;16.10;57.50;;;;;;4930206;29;20412;-46
2022/08/29 05:44:53;;;;;;;5.55;2.28;;;16.20;57.70;;;;;;4935097;29;20039;-47
2022/08/29 05:47:21;;;;;;;5.25;2.13;;;16.20;57.90;;;;;;4924805;29;20497;-47
2022/08/29 05:49:48;;;;;;;3.80;2.33;;;16.30;58.10;;;;;;4932168;29;20055;-49
2022/08/29 05:52:17;;;;;;;2.17;1.77;;;16.30;58.50;;;;;;4934878;29;20114;-47
2022/08/29 05:54:45;;;;;;;1.90;1.70;;;16.40;58.90;;;;;;4933567;29;20115;-50
2022/08/29 05:57:14;;;;;;;3.38;2.13;;;16.50;58.90;;;;;;4929972;29;20465;-51
2022/08/29 05:59:45;;;;;;;2.30;2.00;;;16.50;59.10;;;;;;4935005;29;20054;-51
2022/08/29 06:02:16;;;;;;;3.42;2.28;;;16.60;59.20;;;;;;4933668;29;20670;-51
2022/08/29 06:04:44;;;;;;;3.45;2.38;;;16.70;59.20;;;;;;4929525;29;20051;-51
2022/08/29 06:07:15;;;;;;;3.97;2.95;;;16.80;59.20;;;;;;4926622;29;20074;-50
2022/08/29 06:09:43;;;;;;;7.68;2.20;;;16.90;59.60;;;;;;4929900;29;20047;-50
2022/08/29 06:12:12;;;;;;;3.85;2.13;;;17.00;59.50;;;;;;4934495;29;20056;-51
2022/08/29 06:14:41;;;;;;;7.18;3.10;;;17.10;59.40;;;;;;4934614;29;20059;-51
2022/08/29 06:17:19;;;;;;;3.58;2.67;;;17.20;59.20;;;;;;4930037;29;20403;-46
2022/08/29 06:19:50;;;;;;;4.32;2.80;;;17.30;59.10;;;;;;4934532;29;20090;-51
2022/08/29 06:22:21;;;;;;;3.40;2.22;;;17.40;59.40;;;;;;4932791;29;20496;-51
2022/08/29 06:24:51;;;;;;;3.15;2.58;;;17.50;59.00;;;;;;4930350;29;20043;-51
2022/08/29 06:27:26;;;;;;;6.57;2.58;;;17.50;59.30;;;;;;4930515;29;20052;-51
2022/08/29 06:29:53;;;;;;;4.20;2.83;;;17.60;59.00;;;;;;4934263;29;20052;-48
2022/08/29 06:32:25;;;;;;;;;;;17.70;59.00;;;;;;4932759;29;20475;-48
2022/08/29 06:34:52;;;;;;;5.40;2.33;;;17.90;58.70;;;;;;4932407;29;19947;-51
2022/08/29 06:37:21;;;;;;;5.03;2.50;;;17.90;58.20;;;;;;4921588;29;20409;-50
2022/08/29 06:39:53;;;;;;;5.80;2.63;;;18.00;58.30;;;;;;4934371;29;20043;-50
2022/08/29 06:42:23;;;;;;;5.00;2.35;;;18.00;58.20;;;;;;4924323;29;20065;-47
2022/08/29 06:44:55;;;;;;;3.38;3.08;;;18.10;58.00;;;;;;4931903;29;20126;-51
2022/08/29 06:47:28;;;;;;;2.97;2.35;;;18.10;58.00;;;;;;4933947;29;20047;-48
2022/08/29 06:49:58;;;;;;;3.38;2.80;;;18.20;58.10;;;;;;4934156;29;20131;-48
2022/08/29 06:52:26;;;;;;;6.05;2.45;;;18.30;58.10;;;;;;4928627;29;20086;-51
2022/08/29 06:54:53;;;;;;;4.03;2.80;;;18.30;57.80;;;;;;4934014;29;20067;-47
2022/08/29 06:57:20;;;;;;;5.15;2.58;;;18.30;57.70;;;;;;4925969;29;20477;-51
2022/08/29 06:59:46;;;;;;;2.55;2.35;;;18.30;57.70;;;;;;4934226;29;20741;-48
2022/08/29 07:02:13;;;;;;;5.00;2.65;;;18.40;57.60;;;;;;4925840;29;20485;-50
2022/08/29 07:04:40;;;;;;;4.63;2.60;;;18.40;57.70;;;;;;4916985;29;20064;-47
2022/08/29 07:07:07;;;;;;;4.97;3.00;;;18.50;57.50;;;;;;4934025;29;20458;-47
2022/08/29 07:09:34;;;;;;;3.30;2.50;;;18.50;57.60;;;;;;4933996;29;20063;-48
2022/08/29 07:12:06;;;;;;;7.05;3.42;;;18.60;57.50;;;;;;4928357;29;20509;-45
2022/08/29 07:14:33;;;;;;;3.95;2.72;;;18.70;57.40;;;;;;4937862;29;20182;-46
2022/08/29 07:17:02;;;;;;;4.65;3.15;;;18.80;57.30;;;;;;4928553;29;20051;-45
2022/08/29 07:19:29;;;;;;;4.55;2.97;;;18.90;57.20;;;;;;4918945;29;20104;-47
2022/08/29 07:22:00;;;;;;;4.22;2.47;;;19.00;57.30;;;;;;4933057;29;20043;-51
2022/08/29 07:24:26;;;;;;;6.85;3.20;;;19.00;57.30;;;;;;4937763;29;20099;-49
2022/08/29 07:26:55;;;;;;;3.78;3.20;;;19.20;57.10;;;;;;4937603;29;20512;-51
2022/08/29 07:29:24;;;;;;;4.68;3.03;;;19.20;56.60;;;;;;4934627;29;20048;-47
2022/08/29 07:31:52;;;;;;;5.68;3.03;;;19.30;56.40;;;;;;4933714;29;20044;-46
2022/08/29 07:34:19;;;;;;;4.47;2.47;;;19.40;56.30;;;;;;4936472;29;20044;-48
2022/08/29 07:36:46;;;;;;;3.72;2.83;;;19.50;56.10;;;;;;4937424;29;20044;-47
2022/08/29 07:39:18;;;;;;;3.83;2.47;;;19.60;55.90;;;;;;4932018;29;20040;-46
2022/08/29 07:41:45;;;;;;;4.00;2.78;;;19.70;55.40;;;;;;4937169;29;20103;-48
2022/08/29 07:44:12;;;;;;;6.95;2.95;;;19.80;55.00;;;;;;4937483;29;20055;-48
2022/08/29 07:46:41;;;;;;;4.30;2.53;;;19.90;54.80;;;;;;4935872;29;20043;-50
2022/08/29 07:49:11;;;;;;;6.35;3.03;;;20.00;54.70;;;;;;4933488;29;20047;-49
2022/08/29 07:51:40;;;;;;;6.95;3.00;;;20.10;54.60;;;;;;4937127;29;20051;-52
2022/08/29 07:54:17;;;;;;;3.65;2.15;;;20.10;54.40;;;;;;4937294;29;20051;-51
2022/08/29 07:56:46;;;;;;;3.47;2.60;;;20.20;53.90;;;;;;4932206;29;20385;-50
2022/08/29 07:59:20;;;;;;;7.68;2.75;;;20.30;53.80;;;;;;4932570;29;20042;-51
2022/08/29 08:01:48;;;;;;;5.00;2.92;;;20.40;53.50;;;;;;4936799;29;20420;-48
2022/08/29 08:04:14;;;;;;;6.97;3.17;;;20.40;53.10;;;;;;4937009;29;20043;-51
2022/08/29 08:06:44;;;;;;;6.68;3.08;;;20.50;52.80;;;;;;4931865;29;20122;-47
2022/08/29 08:09:13;;;;;;;5.47;3.22;;;20.50;52.60;;;;;;4936940;29;20047;-49
2022/08/29 08:11:44;;;;;;;5.13;2.75;;;20.60;52.30;;;;;;4936717;29;20048;-49
2022/08/29 08:14:15;;;;;;;8.00;3.10;;;20.60;51.90;;;;;;4932806;29;20493;-50
2022/08/29 08:16:42;;;;;;;3.10;2.10;;;20.60;51.90;;;;;;4933101;29;20078;-48
2022/08/29 08:19:13;;;;;;;7.18;2.65;;;20.70;51.70;;;;;;4936358;29;20056;-50
2022/08/29 08:21:44;;;;;;;7.10;2.75;;;20.60;51.60;;;;;;4936568;29;20048;-51
2022/08/29 08:24:20;;;;;;;6.30;2.70;;;20.60;51.60;;;;;;4935774;29;20067;-49
2022/08/29 08:26:52;;;;;;;8.25;2.17;;;20.70;51.40;;;;;;4931880;29;20055;-48
2022/08/29 08:29:19;;;;;;;5.00;2.15;;;20.60;51.30;;;;;;4934543;29;20500;-49
2022/08/29 08:31:48;;;;;;;5.38;2.60;;;20.60;51.20;;;;;;4936494;29;20127;-51
2022/08/29 08:34:17;;;;;;;4.68;2.50;;;20.70;51.10;;;;;;4933752;29;20059;-48
2022/08/29 08:36:44;;;;;;;5.10;2.42;;;20.60;50.80;;;;;;4931978;29;20063;-48
2022/08/29 08:39:15;;;;;;;5.40;2.45;;;20.70;50.80;;;;;;4936225;29;20420;-48
2022/08/29 08:42:03;;;;;;;6.70;3.40;;;20.60;50.70;;;;;;4936097;29;20058;-47
2022/08/29 08:45:04;;;;;;;6.15;3.28;;;20.70;50.60;;;;;;4934226;29;20069;-51
2022/08/29 08:47:35;;;;;;;6.45;2.45;;;20.70;50.50;;;;;;4917272;29;20456;-46
2022/08/29 08:50:22;;;;;;;6.15;2.72;;;20.70;50.50;;;;;;4936288;29;20048;-49
2022/08/29 08:52:49;;;;;;;4.78;2.33;;;20.70;50.20;;;;;;4930872;29;20044;-48
2022/08/29 08:55:27;;;;;;;5.07;2.30;;;20.70;50.40;;;;;;4933330;29;20074;-51
2022/08/29 08:58:12;;;;;;;7.35;2.90;;;20.80;50.40;;;;;;4931582;29;20424;-48
2022/08/29 09:01:09;;;;;;;4.70;2.58;;;20.80;50.10;;;;;;4936045;29;20114;-46
2022/08/29 09:03:52;;;;;;;4.25;2.30;;;20.90;49.70;;;;;;4934007;29;20044;-46
2022/08/29 09:06:47;;;;;;;5.28;2.33;;;21.00;50.00;;;;;;4935529;29;20492;-47
2022/08/29 09:09:24;;;;;;;4.15;2.20;;;21.10;49.80;;;;;;4935416;29;20110;-46
2022/08/29 09:12:05;;;;;;;14.60;3.45;;;21.30;49.60;;;;;;4932622;29;20412;-47
2022/08/29 09:15:06;;;;;;;3.30;1.88;;;21.40;49.40;;;;;;4929389;29;20051;-47
2022/08/29 09:17:45;;;;;;;5.47;2.20;;;21.50;49.00;;;;;;4929641;29;20115;-48
2022/08/29 09:20:22;;;;;;;3.58;2.10;;;21.70;48.60;;;;;;4919140;29;20044;-46
2022/08/29 09:23:34;;;;;;;5.97;2.42;;;21.80;48.00;;;;;;4932862;29;20045;-46
2022/08/29 09:26:12;;;;;;;5.75;2.67;;;21.90;47.40;;;;;;4932892;29;20090;-47
2022/08/29 09:28:49;;;;;;;9.38;3.20;;;22.00;47.60;;;;;;4933379;29;20043;-50
2022/08/29 09:31:19;;;;;;;4.75;2.10;;;22.00;47.50;;;;;;4927695;29;20091;-50
2022/08/29 09:34:11;;;;;;;5.30;2.80;;;22.10;47.30;;;;;;4935437;29;20420;-49
2022/08/29 09:36:47;;;;;;;2.47;1.80;;;22.20;46.80;;;;;;4926665;29;20043;-50
2022/08/29 09:39:16;;;;;;;3.72;1.90;;;22.20;47.00;;;;;;4935497;29;20051;-47
2022/08/29 09:41:50;;;;;;;7.13;2.00;;;22.30;47.00;;;;;;4931601;29;20084;-50
2022/08/29 09:44:33;;;;;;;3.40;2.08;;;22.40;46.80;;;;;;4934822;29;20496;-51
2022/08/29 09:47:26;;;;;;;4.35;1.90;;;22.40;46.30;;;;;;4934846;29;20055;-46
2022/08/29 09:50:16;;;;;;;4.43;2.08;;;22.60;46.40;;;;;;4928761;29;20048;-47
2022/08/29 09:53:03;;;;;;;5.20;1.90;;;22.60;45.70;;;;;;4932409;29;20120;-49
2022/08/29 09:55:46;;;;;;;5.50;2.20;;;22.70;45.70;;;;;;4929726;29;20063;-47
2022/08/29 09:58:18;;;;;;;3.13;2.15;;;22.70;45.80;;;;;;4934707;29;20051;-50
2022/08/29 10:00:57;;;;;;;;;;;22.70;45.70;;;;;;4929319;29;20526;-49
2022/08/29 10:03:27;;;;;;;5.50;2.00;;;22.80;46.00;;;;;;4934778;29;20298;-51
2022/08/29 10:06:14;;;;;;;5.35;2.65;;;22.80;45.60;;;;;;4934393;29;20040;-49
2022/08/29 10:08:57;;;;;;;4.13;2.42;;;22.80;45.50;;;;;;4930557;29;20460;-47
2022/08/29 10:11:36;;;;;;;3.67;2.05;;;22.80;45.70;;;;;;4930284;29;20062;-49
2022/08/29 10:14:09;;;;;;;8.57;2.08;;;22.90;44.90;;;;;;4934690;29;20044;-47
2022/08/29 10:16:50;;;;;;;4.88;1.98;;;22.90;45.50;;;;;;4928044;29;20531;-50
2022/08/29 10:19:28;;;;;;;4.15;2.28;;;23.00;45.20;;;;;;4920683;29;20043;-50
2022/08/29 10:22:03;;;;;;;4.60;2.00;;;23.10;44.80;;;;;;4934186;29;20063;-52
2022/08/29 10:24:51;;;;;;;4.18;2.10;;;23.10;44.70;;;;;;4934642;29;20106;-50
2022/08/29 10:27:42;;;;;;;5.60;2.33;;;23.30;44.90;;;;;;4931278;29;20042;-47
2022/08/29 10:30:21;;;;;;;4.50;2.08;;;23.40;43.90;;;;;;4933084;29;20044;-47
2022/08/29 10:32:52;;;;;;;3.58;1.90;;;23.50;43.50;;;;;;4933909;29;20039;-47
2022/08/29 10:35:22;;;;;;;3.60;1.83;;;23.60;44.00;;;;;;4932494;29;20460;-47
2022/08/29 10:38:08;;;;;;;4.18;1.80;;;23.60;43.50;;;;;;4927666;29;20523;-47
2022/08/29 10:40:44;;;;;;;4.32;2.75;;;23.70;43.70;;;;;;4928198;29;20056;-49
2022/08/29 10:43:24;;;;;;;12.35;3.08;;;23.80;43.60;;;;;;4933442;29;20457;-47
2022/08/29 10:46:15;;;;;;;4.45;2.72;;;23.90;43.60;;;;;;4931667;29;20058;-49
2022/08/29 10:49:11;;;;;;;3.58;2.20;;;24.00;43.20;;;;;;4927784;29;20050;-47
2022/08/29 10:51:57;;;;;;;3.55;1.88;;;24.10;43.30;;;;;;4927809;29;20064;-47
2022/08/29 10:54:44;;;;;;;5.68;2.33;;;24.20;42.80;;;;;;4915311;29;20056;-48
2022/08/29 10:57:22;;;;;;;8.00;2.38;;;24.30;42.60;;;;;;4924051;29;20416;-49
2022/08/29 10:59:58;;;;;;;3.70;1.95;;;24.40;42.20;;;;;;4930505;29;20424;-47
2022/08/29 11:02:43;;;;;;;4.15;2.15;;;24.40;42.20;;;;;;4915070;29;20519;-51
2022/08/29 11:05:15;;;;;;;6.20;2.60;;;24.30;42.10;;;;;;4917437;29;20112;-46
2022/08/29 11:08:01;;;;;;;4.22;2.30;;;24.40;42.30;;;;;;4931736;29;20509;-48
2022/08/29 11:10:39;;;;;;;6.63;2.50;;;24.40;42.00;;;;;;4927541;29;20051;-48
2022/08/29 11:13:20;;;;;;;6.15;1.92;;;24.40;42.10;;;;;;4932726;29;20055;-47
2022/08/29 11:16:03;;;;;;;5.95;2.45;;;24.40;41.70;;;;;;4930134;29;20103;-46
2022/08/29 11:18:43;;;;;;;3.40;2.38;;;24.40;41.80;;;;;;4927984;29;20122;-52
2022/08/29 11:21:28;;;;;;;3.92;2.10;;;24.50;41.60;;;;;;4933140;29;20055;-51
2022/08/29 11:23:57;;;;;;;5.22;2.05;;;24.50;41.50;;;;;;4930137;29;20039;-47
2022/08/29 11:26:46;;;;;;;5.13;2.28;;;24.50;42.00;;;;;;4933026;29;20044;-48
2022/08/29 11:29:49;;;;;;;3.35;2.55;;;24.50;41.20;;;;;;4933816;29;20074;-47
2022/08/29 11:32:29;;;;;;;4.03;2.30;;;24.50;41.50;;;;;;4929960;29;20056;-49
2022/08/29 11:35:02;;;;;;;;;;;24.50;40.80;;;;;;4933986;29;20047;-47
2022/08/29 11:38:00;;;;;;;3.45;1.92;;;24.50;41.60;;;;;;4933741;29;20280;-48
2022/08/29 11:40:48;;;;;;;5.93;3.22;;;24.50;40.80;;;;;;4912521;29;20055;-47
2022/08/29 11:43:43;;;;;;;3.30;2.33;;;24.40;41.00;;;;;;4927231;29;20044;-50
2022/08/29 11:46:13;;;;;;;6.55;2.42;;;24.30;41.00;;;;;;4933089;29;20047;-47
2022/08/29 11:48:46;;;;;;;4.15;2.50;;;24.30;41.00;;;;;;4933397;29;20059;-47
2022/08/29 11:51:37;;;;;;;3.50;2.05;;;24.20;41.40;;;;;;4930427;29;20047;-50
2022/08/29 11:54:38;;;;;;;4.30;2.10;;;24.20;41.40;;;;;;4931723;29;20412;-51
2022/08/29 11:57:30;;;;;;;4.25;2.10;;;24.30;41.50;;;;;;4911483;29;20063;-48
2022/08/29 12:00:03;;;;;;;3.80;2.25;;;24.30;41.60;;;;;;4930704;29;20519;-50
2022/08/29 12:02:39;;;;;;;3.45;2.38;;;24.30;41.30;;;;;;4933860;29;20040;-50
2022/08/29 12:05:19;;;;;;;4.97;3.20;;;24.40;41.40;;;;;;4936340;29;20044;-55
2022/08/29 12:07:52;;;;;;;4.13;2.17;;;24.50;40.90;;;;;;4937143;29;20039;-47
2022/08/29 12:10:28;;;;;;;4.88;2.00;;;24.50;40.60;;;;;;4934915;29;20107;-49
2022/08/29 12:13:05;;;;;;;8.70;3.92;;;24.60;41.10;;;;;;4936123;29;20058;-50
2022/08/29 12:15:32;;;;;;;4.47;2.40;;;24.70;40.60;;;;;;4936480;29;20043;-47
2022/08/29 12:18:06;;;;;;;4.07;2.28;;;24.70;40.40;;;;;;4920187;29;20059;-47
2022/08/29 12:21:01;;;;;;;3.38;2.30;;;24.80;39.80;;;;;;4923044;29;20492;-46
2022/08/29 12:23:31;;;;;;;3.20;1.98;;;24.90;40.10;;;;;;4934625;29;20420;-48
2022/08/29 12:26:25;;;;;;;3.60;2.05;;;24.90;39.40;;;;;;4936056;29;20173;-50
2022/08/29 12:28:58;;;;;;;5.68;2.33;;;24.90;39.20;;;;;;4934454;29;20052;-47
2022/08/29 12:31:29;;;;;;;4.05;2.25;;;25.00;39.20;;;;;;4932310;29;20068;-48
2022/08/29 12:34:16;;;;;;;3.47;2.33;;;25.00;39.60;;;;;;4936794;29;20139;-52
2022/08/29 12:36:49;;;;;;;5.57;2.60;;;25.10;39.20;;;;;;4936034;29;20267;-47
2022/08/29 12:39:18;;;;;;;5.75;1.88;;;25.20;39.40;;;;;;4931787;29;20493;-47
2022/08/29 12:42:03;;;;;;;4.35;2.42;;;25.30;39.30;;;;;;4936003;29;20054;-52
2022/08/29 12:44:36;;;;;;;2.90;2.15;;;25.50;39.30;;;;;;4929823;29;20058;-52
2022/08/29 12:47:22;;;;;;;7.57;1.90;;;25.60;38.50;;;;;;4934099;29;20044;-51
2022/08/29 12:49:54;;;;;;;3.25;1.90;;;25.80;38.50;;;;;;4934814;29;20580;-53
2022/08/29 12:52:28;;;;;;;;;;;25.90;38.10;;;;;;4929286;29;20095;-49
2022/08/29 12:55:18;;;;;;;3.83;2.20;;;26.10;39.10;;;;;;4934656;29;19930;-47
2022/08/29 12:57:46;;;;;;;3.88;2.25;;;26.20;38.10;;;;;;4929692;29;20044;-48
2022/08/29 13:00:30;;;;;;;3.05;1.90;;;26.20;37.70;;;;;;4934969;29;20078;-50
2022/08/29 13:03:19;;;;;;;5.38;1.98;;;26.30;37.80;;;;;;4936255;29;20048;-47
2022/08/29 13:05:49;;;;;;;3.23;1.60;;;26.40;38.00;;;;;;4935701;29;20047;-49
2022/08/29 13:08:28;;;;;;;3.55;2.35;;;26.40;37.90;;;;;;4932049;29;20453;-50
2022/08/29 13:10:59;;;;;;;4.60;2.28;;;26.50;37.50;;;;;;4934972;29;20073;-49
2022/08/29 13:13:30;;;;;;;4.55;2.53;;;26.60;37.80;;;;;;4936357;29;20052;-49
2022/08/29 13:16:00;;;;;;;4.13;2.20;;;26.60;37.80;;;;;;4931841;29;20622;-51
2022/08/29 13:18:28;;;;;;;2.88;1.75;;;26.80;37.60;;;;;;4930511;29;20146;-50
2022/08/29 13:21:22;;;;;;;5.43;2.42;;;26.90;37.50;;;;;;4935407;29;20071;-48
2022/08/29 13:24:00;;;;;;;3.53;2.00;;;27.00;37.10;;;;;;4916891;29;20048;-52